WetterOnline ( https://www.wetteronline.de )

Wetter aktuell Ehrenkirchen

Aktuelles Wetter: Freiburg/Flugplatz (236m)

6-stündlich | Neueste Meldungen
Ortszeit Temperatur Wetter
Fr, 10.07. 14:00 28.8° C fast wolkenlos
Fr, 10.07. 8:00 25.0° C wolkenlos
Fr, 10.07. 2:00 18.6° C wolkenlos
Do, 09.07. 20:00 30.1° C wolkenlos
Do, 09.07. 14:00 29.7° C leicht bewölkt
Do, 09.07. 8:00 17.5° C bedeckt
Do, 09.07. 2:00 19.5° C wolkenlos
Mi, 08.07. 20:00 25.7° C bedeckt
Ortszeit Temperatur Wetter
Fr, 10.07. 18:00 25.8° C bewölkt
Fr, 10.07. 17:50 25.8° C bewölkt
Fr, 10.07. 17:40 25.9° C bewölkt
Fr, 10.07. 17:30 27.2° C bewölkt
Fr, 10.07. 17:20 27.2° C bewölkt
Fr, 10.07. 17:10 26.7° C bewölkt
Fr, 10.07. 17:00 27.8° C bewölkt
Fr, 10.07. 16:30 27.5° C bewölkt
Fr, 10.07. 16:00 29.5° C bewölkt
Fr, 10.07. 15:30 28.9° C leicht bewölkt
Fr, 10.07. 15:00 29.4° C wolkenlos
Ortszeit Relative Feuchte Sichtweite
Fr, 10.07. 14:00 32% 30 km
Fr, 10.07. 8:00 43% 40 km
Fr, 10.07. 2:00 67% 45 km
Do, 09.07. 20:00 29% 45 km
Do, 09.07. 14:00 31% 30 km
Do, 09.07. 8:00 73% 19 km
Do, 09.07. 2:00 59% 70 km
Mi, 08.07. 20:00 40% 70 km
Ortszeit Relative Feuchte Sichtweite
Fr, 10.07. 18:00 48% 55 km
Fr, 10.07. 17:50 48% -
Fr, 10.07. 17:40 47% -
Fr, 10.07. 17:30 43% 40 km
Fr, 10.07. 17:20 43% -
Fr, 10.07. 17:10 43% -
Fr, 10.07. 17:00 40% 55 km
Fr, 10.07. 16:30 41% 65 km
Fr, 10.07. 16:00 32% 50 km
Fr, 10.07. 15:30 34% 30 km
Fr, 10.07. 15:00 31% 23 km
Ortszeit Niederschlagsmenge Niederschlagsart
Fr, 10.07. 14:00 0.0 l/m2 in 6 Std. -
Fr, 10.07. 8:00 0.0 l/m2 in 12 Std. -
Fr, 10.07. 2:00 0.0 l/m2 in 6 Std. -
Do, 09.07. 20:00 0.0 l/m2 in 12 Std. -
Do, 09.07. 14:00 0.0 l/m2 in 6 Std. -
Do, 09.07. 8:00 0.0 l/m2 in 12 Std. -
Do, 09.07. 2:00 0.0 l/m2 in 6 Std. -
Mi, 08.07. 20:00 0.0 l/m2 in 12 Std. -
Ortszeit Niederschlagsmenge Niederschlagsart
Fr, 10.07. 18:00 0.0 l/m2 in 1 Std. -
Fr, 10.07. 17:50 keine Meldung -
Fr, 10.07. 17:40 keine Meldung -
Fr, 10.07. 17:30 0.0 l/m2 in 1 Std. -
Fr, 10.07. 17:20 keine Meldung -
Fr, 10.07. 17:10 keine Meldung -
Fr, 10.07. 17:00 0.0 l/m2 in 1 Std. -
Fr, 10.07. 16:30 0.0 l/m2 in 1 Std. -
Fr, 10.07. 16:00 0.0 l/m2 in 1 Std. -
Fr, 10.07. 15:30 0.0 l/m2 in 1 Std. -
Fr, 10.07. 15:00 0.0 l/m2 in 1 Std. -
Ortszeit Stärke Spitze Richtung
km/h Bft. km/h Grad Sektor
Fr, 10.07. 14:00 25 4 50 230° SW
Fr, 10.07. 8:00 18 3 29 210° SW
Fr, 10.07. 2:00 4 1 22 300° NW
Do, 09.07. 20:00 17 3 37 250° W
Do, 09.07. 14:00 15 3 37 200° S
Do, 09.07. 8:00 7 2 14 350° N
Do, 09.07. 2:00 9 2 17 160° S
Mi, 08.07. 20:00 7 2 36 300° NW
Ortszeit Stärke Spitze Richtung
km/h Bft. km/h Grad Sektor
Fr, 10.07. 18:00 20 4 37 340° N
Fr, 10.07. 17:50 20 4 - 340° N
Fr, 10.07. 17:40 17 3 - 340° N
Fr, 10.07. 17:30 22 4 37 340° N
Fr, 10.07. 17:20 22 4 - 340° N
Fr, 10.07. 17:10 22 4 - 330° NW
Fr, 10.07. 17:00 22 4 35 340° N
Fr, 10.07. 16:30 11 2 25 340° N
Fr, 10.07. 16:00 14 3 40 270° W
Fr, 10.07. 15:30 18 3 40 210° SW
Fr, 10.07. 15:00 22 4 43 240° SW
Ortszeit Untergrenze Bedeckung Gattung
total tief tief mittel hoch
Fr, 10.07. 14:00 3900 m 1/8 1/8 - - -
Fr, 10.07. 8:00 10500 m 0/8 0/8 - - -
Fr, 10.07. 2:00 - 0/8 0/8 - - -
Do, 09.07. 20:00 - 0/8 0/8 - - -
Do, 09.07. 14:00 8100 m 7/8 0/8 - - -
Do, 09.07. 8:00 4800 m 8/8 8/8 - - -
Do, 09.07. 2:00 - 0/8 0/8 - - -
Mi, 08.07. 20:00 3300 m 8/8 8/8 - - -
Ortszeit Bedeckungsgrad in Achtel und Wolkenuntergrenze
Fr, 10.07. 18:00 7(1800m) 7(2400m) 7(3600m)
Fr, 10.07. 17:50 7(1800m) 7(2400m) 7(3600m)
Fr, 10.07. 17:40 6(1800m) 7(2400m)
Fr, 10.07. 17:30 6(1800m) 7(2400m)
Fr, 10.07. 17:20 6(1800m) 7(2400m)
Fr, 10.07. 17:10 7(1800m) 7(2400m)
Fr, 10.07. 17:00 7(2100m) 7(2400m)
Fr, 10.07. 16:30 7(1800m) 7(2400m)
Fr, 10.07. 16:00 6(2100m) 7(2400m) 7(4200m)
Fr, 10.07. 15:30 2(2100m) 5(3900m)
Fr, 10.07. 15:00 keine Wolken
Ortszeit Luftdruck NN (hPa) Tendenz (hPa in 3 Std.)
Fr, 10.07. 14:00 1013 + 0,5
Fr, 10.07. 8:00 1012 + 0,2
Fr, 10.07. 2:00 1013 - 0,5
Do, 09.07. 20:00 1012 - 1,0
Do, 09.07. 14:00 1015 - 1,4
Do, 09.07. 8:00 1018 + 0,6
Do, 09.07. 2:00 1017 - 0,2
Mi, 08.07. 20:00 1016 0,0
Ortszeit Luftdruck NN (hPa) Tendenz (hPa in 3 Std.)
Fr, 10.07. 18:00 1014 + 0,4
Fr, 10.07. 17:50 1014 keine Meldung
Fr, 10.07. 17:40 1013 keine Meldung
Fr, 10.07. 17:30 1013 - 0,1
Fr, 10.07. 17:20 1013 keine Meldung
Fr, 10.07. 17:10 1013 keine Meldung
Fr, 10.07. 17:00 1013 - 0,3
Fr, 10.07. 16:30 1013 - 0,2
Fr, 10.07. 16:00 1013 - 0,3
Fr, 10.07. 15:30 1013 - 0,2
Fr, 10.07. 15:00 1013 0,0
Ortszeit Schneehöhe (cm)
Fr, 10.07. 14:00 -
Fr, 10.07. 8:00 -
Fr, 10.07. 2:00 -
Do, 09.07. 20:00 -
Do, 09.07. 14:00 -
Do, 09.07. 8:00 -
Do, 09.07. 2:00 -
Mi, 08.07. 20:00 -
Ortszeit Schneehöhe (cm)
Fr, 10.07. 18:00 -
Fr, 10.07. 17:50 -
Fr, 10.07. 17:40 -
Fr, 10.07. 17:30 -
Fr, 10.07. 17:20 -
Fr, 10.07. 17:10 -
Fr, 10.07. 17:00 -
Fr, 10.07. 16:30 -
Fr, 10.07. 16:00 -
Fr, 10.07. 15:30 -
Fr, 10.07. 15:00 -
Link zu dieser Seite / Seite empfehlen

Das Wetter in ...